Time;durP1;ratioP1;P1;durP2;ratioP2;P2;SDS_P1;SDS_P2;PMS_P1;PMS_P2;Temp;Humidity;BMP_temperature;BMP_pressure;BME280_temperature;BME280_humidity;BME280_pressure;Samples;Min_cycle;Max_cycle;Signal;HPM_P1;HPM_P2
2024/01/29 00:01:24;;;;;;;13.20;6.90;;;0.40;99.90;;;;;;5008619;28;20274;-92
2024/01/29 00:03:50;;;;;;;10.30;7.07;;;0.50;99.90;;;;;;5002801;28;20576;-91
2024/01/29 00:06:15;;;;;;;8.87;5.63;;;0.50;99.90;;;;;;4996063;28;20266;-90
2024/01/29 00:08:43;;;;;;;9.80;6.00;;;0.40;99.90;;;;;;4996170;28;20184;-92
2024/01/29 00:11:09;;;;;;;8.73;5.67;;;0.40;99.90;;;;;;4987781;28;20186;-92
2024/01/29 00:13:35;;;;;;;9.43;5.03;;;0.30;99.90;;;;;;5004343;28;20270;-90
2024/01/29 00:16:01;;;;;;;9.57;5.27;;;0.20;99.90;;;;;;5004086;28;20206;-92
2024/01/29 00:18:32;;;;;;;9.50;5.23;;;0.30;99.90;;;;;;4996881;28;20180;-92
2024/01/29 00:20:58;;;;;;;8.53;5.10;;;0.30;99.90;;;;;;5004061;28;20184;-91
2024/01/29 00:23:24;;;;;;;7.87;4.60;;;0.20;99.90;;;;;;4997559;28;20254;-92
2024/01/29 00:25:50;;;;;;;11.83;5.13;;;0.20;99.90;;;;;;4995559;28;20257;-93
2024/01/29 00:28:29;;;;;;;8.57;5.00;;;0.20;99.90;;;;;;4988365;28;20183;-91
2024/01/29 00:30:55;;;;;;;12.23;5.67;;;0.20;99.90;;;;;;4989869;28;20210;-91
2024/01/29 00:33:21;;;;;;;8.90;4.97;;;0.20;99.90;;;;;;4995716;28;20288;-91
2024/01/29 00:35:47;;;;;;;9.30;5.27;;;0.20;99.90;;;;;;4996754;28;20180;-90
2024/01/29 00:38:13;;;;;;;7.13;4.63;;;0.30;99.90;;;;;;4987332;28;20639;-92
2024/01/29 00:40:39;;;;;;;10.30;5.70;;;0.30;99.90;;;;;;4987243;28;20191;-92
2024/01/29 00:43:05;;;;;;;10.63;5.13;;;0.30;99.90;;;;;;4996522;28;20209;-92
2024/01/29 00:45:31;;;;;;;11.90;6.07;;;0.20;99.90;;;;;;4995415;28;20218;-92
2024/01/29 00:47:57;;;;;;;10.40;5.40;;;0.00;99.90;;;;;;5003948;28;20191;-91
2024/01/29 00:50:23;;;;;;;10.53;5.20;;;-0.10;99.90;;;;;;5003650;28;20280;-91
2024/01/29 00:52:49;;;;;;;9.30;5.13;;;-0.10;99.90;;;;;;4988577;28;20179;-92
2024/01/29 00:55:14;;;;;;;10.37;5.73;;;0.00;99.90;;;;;;4988288;28;20591;-90
2024/01/29 00:57:40;;;;;;;9.50;5.27;;;0.10;99.90;;;;;;5002834;28;20261;-91
2024/01/29 01:00:07;;;;;;;11.17;5.77;;;0.10;99.90;;;;;;4995057;28;20187;-92
2024/01/29 01:02:33;;;;;;;8.73;4.80;;;0.20;99.90;;;;;;4988272;28;20288;-91
2024/01/29 01:04:59;;;;;;;8.67;4.63;;;0.30;99.90;;;;;;5003147;28;21090;-92
2024/01/29 01:07:25;;;;;;;6.47;4.30;;;0.20;99.90;;;;;;4988016;28;20263;-91
2024/01/29 01:09:51;;;;;;;10.50;5.50;;;0.10;99.90;;;;;;4987770;28;20681;-92
2024/01/29 01:12:17;;;;;;;9.27;5.53;;;0.00;99.90;;;;;;4988403;28;20188;-91
2024/01/29 01:14:43;;;;;;;8.47;5.50;;;0.00;99.90;;;;;;5002403;28;20187;-91
2024/01/29 01:17:09;;;;;;;9.43;5.33;;;0.00;99.90;;;;;;5002796;28;20622;-92
2024/01/29 01:19:35;;;;;;;10.67;5.20;;;-0.10;99.90;;;;;;5008618;28;20270;-92
2024/01/29 01:22:01;;;;;;;8.57;5.10;;;-0.20;99.90;;;;;;4998526;28;20187;-92
2024/01/29 01:24:26;;;;;;;8.67;4.80;;;-0.10;99.90;;;;;;5002828;28;20639;-90
2024/01/29 01:26:52;;;;;;;9.03;5.30;;;-0.10;99.90;;;;;;4987952;28;20234;-91
2024/01/29 01:29:23;;;;;;;11.30;5.30;;;0.00;99.90;;;;;;5011501;28;20206;-92
2024/01/29 01:31:49;;;;;;;9.73;5.57;;;0.00;99.90;;;;;;5002412;28;20349;-92
2024/01/29 01:34:14;;;;;;;9.60;4.77;;;0.00;99.90;;;;;;5002890;28;20648;-91
2024/01/29 01:36:40;;;;;;;8.97;4.67;;;0.00;99.90;;;;;;4994785;28;20195;-93
2024/01/29 01:39:08;;;;;;;10.93;5.53;;;-0.10;99.90;;;;;;5011011;28;20193;-93
2024/01/29 01:41:34;;;;;;;9.57;4.83;;;-0.20;99.90;;;;;;5005807;28;20195;-92
2024/01/29 01:44:00;;;;;;;11.97;5.40;;;-0.20;99.90;;;;;;5001289;28;20188;-92
2024/01/29 01:46:26;;;;;;;8.47;5.10;;;-0.20;99.90;;;;;;5002184;28;20299;-92
2024/01/29 01:48:55;;;;;;;7.73;4.83;;;-0.20;99.90;;;;;;4993754;28;20191;-93
2024/01/29 01:51:22;;;;;;;10.47;5.53;;;-0.10;99.90;;;;;;4994460;28;20175;-94
2024/01/29 01:53:54;;;;;;;9.87;5.00;;;-0.30;99.90;;;;;;5003016;28;20186;-92
2024/01/29 01:56:21;;;;;;;12.03;5.50;;;-0.30;99.90;;;;;;5002395;28;20257;-92
2024/01/29 01:58:55;;;;;;;9.47;5.20;;;-0.20;99.90;;;;;;4987660;28;20180;-92
2024/01/29 02:01:21;;;;;;;9.67;4.53;;;-0.20;99.90;;;;;;5002651;28;20275;-93
2024/01/29 02:03:46;;;;;;;9.63;5.20;;;-0.40;99.90;;;;;;5009746;28;20306;-93
2024/01/29 02:06:12;;;;;;;10.13;5.43;;;-0.50;99.90;;;;;;5002476;28;20217;-93
2024/01/29 02:08:39;;;;;;;13.70;5.10;;;-0.50;99.90;;;;;;4990838;28;20304;-93
2024/01/29 02:11:05;;;;;;;7.07;4.37;;;-0.60;99.90;;;;;;4997718;28;20184;-92
2024/01/29 02:13:31;;;;;;;8.23;4.73;;;-0.50;99.90;;;;;;4993315;28;20634;-92
2024/01/29 02:15:57;;;;;;;11.93;6.23;;;-0.50;99.90;;;;;;4983122;28;20188;-92
2024/01/29 02:18:23;;;;;;;9.07;5.87;;;-0.50;99.90;;;;;;5001331;28;20630;-93
2024/01/29 02:20:49;;;;;;;9.93;5.80;;;-0.40;99.90;;;;;;4999175;28;20186;-93
2024/01/29 02:23:15;;;;;;;10.57;5.97;;;-0.40;99.90;;;;;;4996762;28;20188;-91
2024/01/29 02:25:40;;;;;;;10.60;5.70;;;-0.30;99.90;;;;;;5009854;28;20532;-93
2024/01/29 02:28:06;;;;;;;10.40;5.63;;;-0.30;99.90;;;;;;4987258;28;20188;-92
2024/01/29 02:30:33;;;;;;;10.40;5.47;;;-0.30;99.90;;;;;;4985195;28;20185;-93
2024/01/29 02:32:59;;;;;;;9.00;5.33;;;-0.30;99.90;;;;;;4994008;28;20235;-92
2024/01/29 02:35:25;;;;;;;7.97;5.03;;;-0.30;99.90;;;;;;4996703;28;20263;-92
2024/01/29 02:37:51;;;;;;;7.03;4.53;;;-0.30;99.90;;;;;;5019261;28;20183;-93
2024/01/29 02:40:21;;;;;;;9.23;5.03;;;-0.30;99.90;;;;;;5000694;28;20693;-93
2024/01/29 02:42:47;;;;;;;9.00;4.90;;;-0.30;99.90;;;;;;4994423;28;20255;-93
2024/01/29 02:45:13;;;;;;;13.67;4.97;;;-0.30;99.90;;;;;;5010867;28;20602;-91
2024/01/29 02:47:39;;;;;;;9.23;4.77;;;-0.40;99.90;;;;;;5006824;28;20191;-92
2024/01/29 02:50:10;;;;;;;9.67;4.57;;;-0.30;99.90;;;;;;4990643;28;20184;-92
2024/01/29 02:52:36;;;;;;;9.23;5.03;;;-0.30;99.90;;;;;;4989085;28;20569;-91
2024/01/29 02:55:03;;;;;;;9.20;4.90;;;-0.40;99.90;;;;;;5005711;28;20188;-92
2024/01/29 03:00:13;;;;;;;9.30;4.80;;;-0.50;99.90;;;;;;5403476;22;20284;-92
2024/01/29 03:02:38;;;;;;;8.50;4.83;;;-0.50;99.90;;;;;;5035994;28;20182;-93
2024/01/29 03:05:04;;;;;;;8.80;4.87;;;-0.50;99.90;;;;;;5035830;28;20221;-93
2024/01/29 03:07:30;;;;;;;10.03;5.00;;;-0.50;99.90;;;;;;5036052;28;20178;-93
2024/01/29 03:09:56;;;;;;;11.50;5.47;;;-0.50;99.90;;;;;;5035549;28;20196;-93
2024/01/29 03:12:24;;;;;;;8.00;4.63;;;-0.40;99.90;;;;;;5035850;28;20302;-92
2024/01/29 03:14:51;;;;;;;7.20;4.40;;;-0.40;99.90;;;;;;5035681;28;20187;-92
2024/01/29 03:17:17;;;;;;;10.63;4.23;;;-0.50;99.90;;;;;;5035947;28;20232;-92
2024/01/29 03:19:43;;;;;;;10.63;5.43;;;-0.50;99.90;;;;;;5035950;28;20190;-91
2024/01/29 03:22:08;;;;;;;7.60;4.47;;;-0.60;99.90;;;;;;5037097;28;20262;-91
2024/01/29 03:24:34;;;;;;;9.10;5.00;;;-0.60;99.90;;;;;;5035853;28;20285;-91
2024/01/29 03:27:00;;;;;;;9.17;4.60;;;-0.60;99.90;;;;;;5036688;28;20206;-92
2024/01/29 03:29:26;;;;;;;8.97;5.23;;;-0.60;99.90;;;;;;5034902;28;20244;-92
2024/01/29 03:31:52;;;;;;;6.53;4.70;;;-0.50;99.90;;;;;;5035713;28;20195;-92
2024/01/29 03:34:17;;;;;;;8.23;4.57;;;-0.40;99.90;;;;;;5035539;28;20508;-91
2024/01/29 03:36:44;;;;;;;8.40;4.70;;;-0.60;99.90;;;;;;5035442;28;20617;-92
2024/01/29 03:39:10;;;;;;;9.10;4.60;;;-0.60;99.90;;;;;;5035774;28;20269;-92
2024/01/29 03:41:36;;;;;;;9.50;5.03;;;-0.60;99.90;;;;;;5035545;28;20503;-92
2024/01/29 03:44:02;;;;;;;7.57;4.67;;;-0.70;99.90;;;;;;5035372;28;20186;-92
2024/01/29 03:46:28;;;;;;;10.10;5.07;;;-0.60;99.90;;;;;;5034773;28;20206;-92
2024/01/29 03:48:54;;;;;;;10.47;4.90;;;-0.60;99.90;;;;;;5035394;28;20545;-92
2024/01/29 03:51:19;;;;;;;9.93;5.23;;;-0.60;99.90;;;;;;5034904;28;20182;-95
2024/01/29 03:53:45;;;;;;;8.63;4.80;;;-0.60;99.90;;;;;;5035125;28;20635;-91
2024/01/29 03:56:11;;;;;;;10.03;4.33;;;-0.70;99.90;;;;;;5035149;28;20178;-91
2024/01/29 03:58:37;;;;;;;8.33;4.53;;;-0.70;99.90;;;;;;5035300;28;20213;-91
2024/01/29 04:01:03;;;;;;;9.10;5.00;;;-0.80;99.90;;;;;;5035069;28;20508;-92
2024/01/29 04:03:29;;;;;;;9.13;5.00;;;-0.90;99.90;;;;;;5034734;28;20625;-91
2024/01/29 04:05:54;;;;;;;8.60;4.37;;;-0.90;99.90;;;;;;5034984;28;20214;-91
2024/01/29 04:08:21;;;;;;;8.70;4.53;;;-1.00;99.90;;;;;;5034767;28;20586;-91
2024/01/29 04:10:47;;;;;;;6.43;4.23;;;-1.10;99.90;;;;;;5034924;28;20277;-91
2024/01/29 04:13:13;;;;;;;8.20;5.00;;;-1.00;99.90;;;;;;5028926;28;20210;-91
2024/01/29 04:15:39;;;;;;;7.90;4.93;;;-1.00;99.90;;;;;;5034643;28;20194;-92
2024/01/29 04:18:05;;;;;;;8.50;5.13;;;-1.00;99.90;;;;;;5034120;28;20205;-91
2024/01/29 04:20:30;;;;;;;7.33;4.57;;;-0.90;99.90;;;;;;5034619;28;20208;-92
2024/01/29 04:22:56;;;;;;;9.23;4.93;;;-0.80;99.90;;;;;;5034734;28;20197;-91
2024/01/29 04:25:22;;;;;;;7.60;4.67;;;-0.70;99.90;;;;;;5034629;28;20244;-91
2024/01/29 04:27:48;;;;;;;9.23;4.60;;;-0.70;99.90;;;;;;5034691;28;20217;-91
2024/01/29 04:30:14;;;;;;;6.90;4.50;;;-0.70;99.90;;;;;;5034542;28;20186;-91
2024/01/29 04:32:40;;;;;;;8.30;5.27;;;-0.60;99.90;;;;;;5034679;28;20671;-91
2024/01/29 04:35:06;;;;;;;9.93;5.37;;;-0.60;99.90;;;;;;5034561;28;20629;-91
2024/01/29 04:37:32;;;;;;;7.47;4.60;;;-0.60;99.90;;;;;;5033895;28;20182;-91
2024/01/29 04:39:58;;;;;;;8.87;4.70;;;-0.70;99.90;;;;;;5034038;28;20466;-91
2024/01/29 04:42:23;;;;;;;8.07;4.53;;;-0.70;99.90;;;;;;5034296;28;20517;-91
2024/01/29 04:44:49;;;;;;;7.53;4.63;;;-0.70;99.90;;;;;;5033929;28;20684;-90
2024/01/29 04:47:15;;;;;;;9.93;5.00;;;-0.70;99.90;;;;;;5033779;28;20186;-91
2024/01/29 04:49:41;;;;;;;9.93;4.30;;;-0.70;99.90;;;;;;5033893;28;20180;-91
2024/01/29 04:52:07;;;;;;;7.83;4.70;;;-0.70;99.90;;;;;;5034354;28;20182;-91
2024/01/29 04:54:32;;;;;;;7.77;4.97;;;-0.60;99.90;;;;;;5033648;28;20293;-91
2024/01/29 04:56:58;;;;;;;10.07;4.57;;;-0.60;99.90;;;;;;5033186;28;20194;-90
2024/01/29 04:59:24;;;;;;;8.80;4.97;;;-0.50;99.90;;;;;;5033319;28;20246;-91
2024/01/29 05:01:50;;;;;;;8.97;4.83;;;-0.50;99.90;;;;;;5033694;28;20191;-90
2024/01/29 05:04:15;;;;;;;6.07;4.20;;;-0.50;99.90;;;;;;5033778;28;20174;-91
2024/01/29 05:06:41;;;;;;;7.73;4.63;;;-0.50;99.90;;;;;;5033800;28;20203;-91
2024/01/29 05:09:09;;;;;;;7.80;4.47;;;-0.50;99.90;;;;;;5033729;28;20193;-91
2024/01/29 05:11:37;;;;;;;6.27;4.37;;;-0.60;99.90;;;;;;5033802;28;20197;-91
2024/01/29 05:14:03;;;;;;;6.57;4.10;;;-0.60;99.90;;;;;;5033450;28;20496;-91
2024/01/29 05:16:29;;;;;;;7.07;4.20;;;-0.70;99.90;;;;;;5033529;28;20225;-91
2024/01/29 05:18:55;;;;;;;11.10;5.40;;;-0.80;99.90;;;;;;5033676;28;20644;-90
2024/01/29 05:21:20;;;;;;;8.80;4.73;;;-0.90;99.90;;;;;;5033483;28;20537;-91
2024/01/29 05:23:46;;;;;;;8.30;4.90;;;-0.80;99.90;;;;;;5033629;28;20238;-91
2024/01/29 05:26:18;;;;;;;9.33;5.57;;;-0.80;99.90;;;;;;5033647;28;20212;-91
2024/01/29 05:28:43;;;;;;;9.83;5.27;;;-0.80;99.90;;;;;;5025419;28;20193;-90
2024/01/29 05:31:13;;;;;;;11.30;5.70;;;-0.80;99.90;;;;;;5033363;28;20190;-90
2024/01/29 05:33:39;;;;;;;11.93;6.50;;;-0.80;99.90;;;;;;5033724;28;20182;-91
2024/01/29 05:36:05;;;;;;;10.60;5.33;;;-0.80;99.90;;;;;;5034041;28;20193;-93
2024/01/29 05:38:35;;;;;;;11.00;4.67;;;-0.80;99.90;;;;;;5033239;28;20563;-91
2024/01/29 05:41:01;;;;;;;8.30;5.33;;;-0.70;99.90;;;;;;5033138;28;20185;-91
2024/01/29 05:43:27;;;;;;;8.53;5.33;;;-0.70;99.90;;;;;;5032995;28;20271;-91
2024/01/29 05:45:52;;;;;;;8.50;5.50;;;-0.70;99.90;;;;;;5032943;28;20317;-91
2024/01/29 05:48:19;;;;;;;6.73;4.57;;;-0.70;99.90;;;;;;5033108;28;20586;-91
2024/01/29 05:50:45;;;;;;;8.83;4.50;;;-0.70;99.90;;;;;;5033609;28;20210;-92
2024/01/29 05:53:11;;;;;;;6.93;4.57;;;-0.70;99.90;;;;;;5033424;28;20221;-92
2024/01/29 05:55:36;;;;;;;9.37;4.20;;;-0.70;99.90;;;;;;5032950;28;20193;-91
2024/01/29 05:58:06;;;;;;;5.93;3.83;;;-0.70;99.90;;;;;;5032550;28;20253;-92
2024/01/29 06:00:32;;;;;;;5.80;3.50;;;-0.70;99.90;;;;;;5032051;28;20236;-91
2024/01/29 06:02:57;;;;;;;5.43;3.20;;;-0.60;99.90;;;;;;5032924;28;20186;-91
2024/01/29 06:05:23;;;;;;;5.00;3.00;;;-0.60;99.90;;;;;;5032698;28;20202;-91
2024/01/29 06:07:51;;;;;;;8.20;3.43;;;-0.60;99.90;;;;;;5033061;28;20621;-91
2024/01/29 06:10:16;;;;;;;6.70;3.23;;;-0.60;99.90;;;;;;5036719;28;20190;-92
2024/01/29 06:12:42;;;;;;;7.07;3.30;;;-0.60;99.90;;;;;;5036483;28;20190;-92
2024/01/29 06:15:08;;;;;;;5.47;2.90;;;-0.60;99.90;;;;;;5036559;28;20363;-91
2024/01/29 06:17:34;;;;;;;5.70;3.37;;;-0.60;99.90;;;;;;5037763;28;20349;-91
2024/01/29 06:20:00;;;;;;;5.77;2.90;;;-0.60;99.90;;;;;;5036227;28;20186;-92
2024/01/29 06:22:26;;;;;;;4.43;3.10;;;-0.60;99.90;;;;;;5035101;28;20185;-91
2024/01/29 06:24:52;;;;;;;5.87;3.00;;;-0.60;99.90;;;;;;5035080;28;20235;-91
2024/01/29 06:27:17;;;;;;;5.07;2.67;;;-0.60;99.90;;;;;;5035138;28;20182;-92
2024/01/29 06:29:43;;;;;;;4.20;2.80;;;-0.60;99.90;;;;;;5034817;28;20193;-91
2024/01/29 06:32:09;;;;;;;8.73;3.60;;;-0.60;99.90;;;;;;5034960;28;20687;-90
2024/01/29 06:34:36;;;;;;;5.57;3.57;;;-0.60;99.90;;;;;;5034678;28;20535;-92
2024/01/29 06:37:02;;;;;;;5.27;2.80;;;-0.70;99.90;;;;;;5036092;28;20186;-90
2024/01/29 06:39:28;;;;;;;2.83;2.40;;;-0.70;99.90;;;;;;5036070;28;20201;-91
2024/01/29 06:41:54;;;;;;;5.37;2.97;;;-0.80;99.90;;;;;;5036374;28;20196;-92
2024/01/29 06:44:20;;;;;;;4.47;2.90;;;-0.80;99.90;;;;;;5035121;28;20174;-91
2024/01/29 06:46:46;;;;;;;5.23;3.10;;;-0.70;99.90;;;;;;5036046;28;20668;-92
2024/01/29 06:49:27;;;;;;;6.37;3.53;;;-0.70;99.90;;;;;;5036262;28;20623;-90
2024/01/29 06:51:53;;;;;;;7.57;4.17;;;-0.70;99.90;;;;;;5029247;28;20185;-92
2024/01/29 06:54:19;;;;;;;5.63;3.43;;;-0.70;99.90;;;;;;5036077;28;20179;-92
2024/01/29 06:56:46;;;;;;;6.57;3.77;;;-0.70;99.90;;;;;;5035984;28;20201;-91
2024/01/29 06:59:12;;;;;;;6.37;3.70;;;-0.70;99.90;;;;;;5035952;28;20233;-90
2024/01/29 07:01:38;;;;;;;6.07;3.50;;;-0.70;99.90;;;;;;5035639;28;20301;-92
2024/01/29 07:04:04;;;;;;;6.10;3.50;;;-0.90;99.90;;;;;;5035633;28;20281;-91
2024/01/29 07:06:30;;;;;;;4.53;3.37;;;-0.90;99.90;;;;;;5036507;28;20316;-93
2024/01/29 07:08:59;;;;;;;7.43;3.67;;;-0.80;99.90;;;;;;5036544;28;20189;-92
2024/01/29 07:11:25;;;;;;;6.60;3.43;;;-0.70;99.90;;;;;;5035872;28;20217;-92
2024/01/29 07:13:51;;;;;;;7.23;4.00;;;-0.80;99.90;;;;;;5035336;28;20586;-93
2024/01/29 07:16:17;;;;;;;8.60;4.23;;;-0.80;99.90;;;;;;5035220;28;20240;-92
2024/01/29 07:18:43;;;;;;;8.07;3.70;;;-0.80;99.90;;;;;;5035690;28;20186;-92
2024/01/29 07:21:10;;;;;;;5.63;3.77;;;-0.80;99.90;;;;;;5035074;28;20186;-92
2024/01/29 07:23:36;;;;;;;8.43;4.30;;;-0.70;99.90;;;;;;5035713;28;20636;-93
2024/01/29 07:26:02;;;;;;;4.50;3.37;;;-0.70;99.90;;;;;;5035399;28;20202;-92
2024/01/29 07:28:28;;;;;;;9.03;4.40;;;-0.70;99.90;;;;;;5035281;28;20198;-91
2024/01/29 07:30:53;;;;;;;14.77;8.60;;;-0.70;99.90;;;;;;5035411;28;20185;-92
2024/01/29 07:33:20;;;;;;;10.87;6.50;;;-0.70;99.90;;;;;;5036670;28;20264;-91
2024/01/29 07:35:46;;;;;;;12.27;4.80;;;-0.80;99.90;;;;;;5035247;28;20197;-94
2024/01/29 07:38:11;;;;;;;9.70;5.40;;;-0.80;99.90;;;;;;5034817;28;20187;-91
2024/01/29 07:40:41;;;;;;;8.63;4.90;;;-0.80;99.90;;;;;;5035126;28;20210;-91
2024/01/29 07:43:07;;;;;;;10.73;5.33;;;-0.90;99.90;;;;;;5035384;28;20260;-91
2024/01/29 07:45:33;;;;;;;8.43;5.33;;;-0.90;99.90;;;;;;5034942;28;20728;-88
2024/01/29 07:48:00;;;;;;;9.27;5.43;;;-0.80;99.90;;;;;;5035400;28;20209;-91
2024/01/29 07:50:26;;;;;;;12.40;7.80;;;-0.80;99.90;;;;;;5032116;28;20522;-88
2024/01/29 07:52:51;;;;;;;11.77;6.23;;;-0.70;99.90;;;;;;5032731;28;20230;-91
2024/01/29 07:55:18;;;;;;;6.13;4.70;;;-0.70;99.90;;;;;;5030434;28;20194;-89
2024/01/29 07:57:44;;;;;;;6.77;4.40;;;-0.60;99.90;;;;;;5031778;28;20179;-89
2024/01/29 08:00:11;;;;;;;6.67;4.10;;;-0.60;99.90;;;;;;5031496;28;20242;-89
2024/01/29 08:02:36;;;;;;;6.63;4.63;;;-0.50;99.90;;;;;;5031334;28;20191;-91
2024/01/29 08:05:02;;;;;;;9.47;4.23;;;-0.40;99.90;;;;;;5033410;28;20656;-87
2024/01/29 08:07:28;;;;;;;4.93;3.57;;;-0.40;99.90;;;;;;5031745;28;20232;-89
2024/01/29 08:09:54;;;;;;;7.10;4.00;;;-0.30;99.90;;;;;;5030341;28;20197;-89
2024/01/29 08:12:20;;;;;;;6.27;3.70;;;-0.30;99.90;;;;;;5030727;28;20628;-91
2024/01/29 08:14:47;;;;;;;4.63;3.17;;;-0.20;99.90;;;;;;5031315;28;20190;-87
2024/01/29 08:17:13;;;;;;;6.20;3.50;;;-0.10;99.90;;;;;;5031735;28;20205;-93
2024/01/29 08:19:39;;;;;;;7.27;3.70;;;-0.10;99.90;;;;;;5031708;28;20195;-91
2024/01/29 08:22:08;;;;;;;4.10;3.07;;;0.00;99.90;;;;;;5030895;28;20625;-94
2024/01/29 08:24:34;;;;;;;4.43;2.87;;;0.00;99.90;;;;;;5033018;28;20559;-96
2024/01/29 08:27:00;;;;;;;5.13;2.73;;;0.10;99.90;;;;;;5034701;28;20222;-95
2024/01/29 08:29:26;;;;;;;3.87;2.60;;;0.20;99.90;;;;;;5033460;28;20182;-96
2024/01/29 08:31:52;;;;;;;5.90;2.87;;;0.30;99.90;;;;;;5033014;28;20186;-95
2024/01/29 08:34:17;;;;;;;5.80;2.80;;;0.40;99.90;;;;;;5033228;28;20636;-95
2024/01/29 08:36:43;;;;;;;3.63;2.33;;;0.50;99.90;;;;;;5031707;28;20521;-92
2024/01/29 08:39:09;;;;;;;6.87;2.83;;;0.60;99.90;;;;;;5032707;28;20596;-92
2024/01/29 08:41:35;;;;;;;3.90;2.77;;;0.70;99.90;;;;;;5031335;28;20558;-91
2024/01/29 08:44:03;;;;;;;3.00;2.17;;;0.80;99.90;;;;;;5031608;28;20186;-92
2024/01/29 08:46:29;;;;;;;3.77;2.20;;;0.90;99.90;;;;;;5031282;28;20249;-95
2024/01/29 08:48:55;;;;;;;5.43;2.07;;;1.10;99.90;;;;;;5031394;28;20687;-95
2024/01/29 08:51:21;;;;;;;3.43;1.93;;;1.30;99.90;;;;;;5031672;28;20186;-92
2024/01/29 08:53:46;;;;;;;5.47;1.80;;;1.50;99.90;;;;;;5034904;28;20182;-96
2024/01/29 08:56:12;;;;;;;2.53;1.80;;;1.60;99.90;;;;;;5034708;28;20189;-96
2024/01/29 08:58:38;;;;;;;3.90;2.97;;;1.70;99.90;;;;;;5032262;28;20566;-95
2024/01/29 09:01:04;;;;;;;6.27;2.70;;;1.70;99.90;;;;;;5030684;28;20293;-94
2024/01/29 09:03:30;;;;;;;6.23;3.10;;;1.70;99.90;;;;;;5031440;28;20285;-94
2024/01/29 09:05:56;;;;;;;4.57;2.87;;;1.70;99.90;;;;;;5032659;28;20206;-96
2024/01/29 09:08:22;;;;;;;4.57;2.77;;;1.70;99.90;;;;;;5034941;28;20186;-96
2024/01/29 09:10:48;;;;;;;6.20;2.70;;;1.80;99.90;;;;;;5031180;28;21051;-93
2024/01/29 09:13:13;;;;;;;2.60;1.87;;;1.80;99.90;;;;;;5030660;28;20186;-90
2024/01/29 09:15:39;;;;;;;3.33;1.90;;;2.00;99.90;;;;;;5030288;28;20221;-90
2024/01/29 09:18:05;;;;;;;3.47;1.80;;;2.20;99.90;;;;;;5031855;28;20514;-91
2024/01/29 09:20:34;;;;;;;2.50;1.73;;;2.50;99.90;;;;;;5030531;28;20184;-93
2024/01/29 09:22:59;;;;;;;3.37;1.83;;;2.70;99.90;;;;;;5030288;28;20629;-94
2024/01/29 09:25:25;;;;;;;2.40;1.67;;;2.90;99.90;;;;;;5032001;28;20211;-96
2024/01/29 09:27:51;;;;;;;3.23;1.80;;;3.10;99.90;;;;;;5032220;28;20190;-95
2024/01/29 09:30:17;;;;;;;2.70;1.67;;;3.40;99.90;;;;;;5036306;28;20182;-96
2024/01/29 09:32:43;;;;;;;3.40;2.00;;;3.60;99.90;;;;;;5042499;28;20186;-95
2024/01/29 09:35:09;;;;;;;3.70;1.60;;;3.70;99.90;;;;;;5039325;28;20513;-96
2024/01/29 09:37:36;;;;;;;3.40;1.83;;;3.80;99.90;;;;;;5044388;28;20190;-96
2024/01/29 09:40:02;;;;;;;6.30;2.10;;;4.00;99.90;;;;;;5048724;28;20178;-96
2024/01/29 09:42:31;;;;;;;4.60;1.70;;;4.10;99.90;;;;;;5040813;28;20182;-95
2024/01/29 09:45:00;;;;;;;2.10;1.27;;;4.20;99.90;;;;;;5040980;28;20175;-96
2024/01/29 09:47:27;;;;;;;2.03;1.20;;;4.30;99.90;;;;;;5042296;28;20170;-96
2024/01/29 09:49:55;;;;;;;2.30;1.37;;;4.50;99.90;;;;;;5039730;28;20198;-96
2024/01/29 09:52:22;;;;;;;2.87;1.70;;;4.60;99.90;;;;;;5034265;28;20617;-94
2024/01/29 09:54:50;;;;;;;2.07;1.40;;;4.70;99.90;;;;;;5032152;28;20277;-92
2024/01/29 09:57:16;;;;;;;3.73;1.70;;;4.80;99.90;;;;;;5033322;28;20197;-94
2024/01/29 09:59:44;;;;;;;2.20;1.47;;;4.90;99.90;;;;;;5034712;28;20233;-94
2024/01/29 10:02:19;;;;;;;2.60;1.30;;;5.00;99.90;;;;;;5037938;28;20202;-94
2024/01/29 10:04:51;;;;;;;2.43;1.60;;;5.10;99.90;;;;;;5031095;28;20647;-95
2024/01/29 10:07:18;;;;;;;4.47;1.63;;;5.10;99.90;;;;;;5037665;28;20214;-93
2024/01/29 10:09:54;;;;;;;2.00;1.23;;;5.20;99.90;;;;;;5037073;28;20187;-95
2024/01/29 10:12:23;;;;;;;3.80;1.70;;;5.20;99.90;;;;;;5037171;28;20569;-96
2024/01/29 10:14:55;;;;;;;3.17;1.50;;;5.30;99.90;;;;;;5035468;28;20218;-94
2024/01/29 10:17:23;;;;;;;2.67;1.60;;;5.60;99.90;;;;;;5019641;28;20213;-93
2024/01/29 10:19:53;;;;;;;32.63;3.97;;;5.70;99.90;;;;;;5034597;28;20174;-93
2024/01/29 10:22:25;;;;;;;3.87;1.60;;;5.80;99.90;;;;;;5017887;28;20222;-95
2024/01/29 10:25:02;;;;;;;14.33;2.37;;;5.90;99.90;;;;;;5034188;28;20186;-94
2024/01/29 10:27:28;;;;;;;3.07;1.47;;;6.00;99.90;;;;;;5019400;28;20202;-96
2024/01/29 10:29:54;;;;;;;3.57;1.70;;;6.00;99.90;;;;;;5035488;28;20533;-95
2024/01/29 10:32:21;;;;;;;5.83;1.57;;;6.00;99.90;;;;;;5034808;28;20193;-95
2024/01/29 10:34:48;;;;;;;3.57;1.60;;;6.10;99.90;;;;;;5034294;28;20667;-95
2024/01/29 10:37:16;;;;;;;4.47;1.60;;;6.00;99.90;;;;;;5033812;28;20182;-95
2024/01/29 10:39:42;;;;;;;2.50;1.33;;;6.00;99.90;;;;;;5033593;28;20273;-95
2024/01/29 10:42:09;;;;;;;3.10;1.60;;;6.00;99.90;;;;;;5032863;28;20186;-94
2024/01/29 10:44:39;;;;;;;2.77;1.30;;;6.00;99.90;;;;;;5033235;28;20209;-95
2024/01/29 10:47:29;;;;;;;4.13;1.70;;;5.90;99.90;;;;;;5032441;28;20663;-94
2024/01/29 10:49:56;;;;;;;3.17;2.00;;;5.90;99.90;;;;;;5026219;28;20191;-94
2024/01/29 10:52:23;;;;;;;3.10;1.80;;;5.90;99.90;;;;;;5032320;28;20190;-94
2024/01/29 10:54:51;;;;;;;3.77;1.47;;;5.90;99.90;;;;;;5032995;28;20221;-93
2024/01/29 10:57:20;;;;;;;3.37;1.80;;;6.10;99.90;;;;;;5037401;28;20493;-93
2024/01/29 10:59:48;;;;;;;5.53;2.10;;;6.00;99.90;;;;;;5036100;28;20284;-93
2024/01/29 11:02:16;;;;;;;4.53;2.00;;;6.00;99.90;;;;;;5036172;28;20306;-92
2024/01/29 11:04:44;;;;;;;4.50;2.13;;;6.10;99.90;;;;;;5036134;28;20186;-93
2024/01/29 11:07:19;;;;;;;4.37;2.30;;;6.10;99.90;;;;;;5035747;28;20211;-93
2024/01/29 11:09:55;;;;;;;5.13;2.00;;;6.20;99.90;;;;;;5027886;28;20258;-94
2024/01/29 11:12:22;;;;;;;4.87;2.27;;;6.30;99.90;;;;;;5035717;28;20182;-93
2024/01/29 11:15:00;;;;;;;4.27;2.10;;;6.40;99.90;;;;;;5030521;28;20186;-94
2024/01/29 11:17:28;;;;;;;7.27;2.40;;;6.50;99.90;;;;;;5033681;28;20182;-92
2024/01/29 11:19:58;;;;;;;6.47;2.90;;;6.60;99.90;;;;;;5032100;28;20272;-93
2024/01/29 11:22:34;;;;;;;4.97;2.70;;;6.70;99.90;;;;;;5031803;28;20317;-93
2024/01/29 11:25:05;;;;;;;6.90;3.20;;;6.90;99.90;;;;;;5031743;28;20186;-94
2024/01/29 11:27:32;;;;;;;5.20;2.97;;;7.00;99.90;;;;;;5031400;28;20187;-94
2024/01/29 11:29:58;;;;;;;8.20;3.40;;;7.10;99.90;;;;;;5032513;28;20186;-94
2024/01/29 11:32:24;;;;;;;7.13;2.83;;;7.20;99.90;;;;;;5033027;28;20186;-94
2024/01/29 11:34:51;;;;;;;10.30;3.23;;;7.40;99.90;;;;;;5032838;28;20221;-94
2024/01/29 11:37:31;;;;;;;9.10;3.63;;;7.50;99.90;;;;;;5032800;28;20182;-95
2024/01/29 11:39:57;;;;;;;10.17;3.20;;;7.60;99.90;;;;;;5030797;28;20205;-92
2024/01/29 11:42:23;;;;;;;5.03;2.87;;;7.70;99.90;;;;;;5032142;28;20621;-93
2024/01/29 11:44:50;;;;;;;8.83;3.20;;;7.90;99.90;;;;;;5032670;28;20198;-92
2024/01/29 11:47:17;;;;;;;8.90;2.85;;;8.00;99.90;;;;;;5031358;28;20664;-93
2024/01/29 11:49:44;;;;;;;8.03;2.50;;;8.20;99.90;;;;;;5032183;28;20194;-94
2024/01/29 11:52:09;;;;;;;4.00;1.80;;;8.10;99.90;;;;;;5033538;28;20217;-91
2024/01/29 11:54:36;;;;;;;2.15;1.67;;;8.20;99.90;;;;;;5033727;28;20218;-92
2024/01/29 11:57:02;;;;;;;6.00;1.92;;;8.20;99.90;;;;;;5033354;28;20183;-91
2024/01/29 11:59:28;;;;;;;4.45;1.77;;;8.30;99.90;;;;;;5032052;28;20233;-94
2024/01/29 12:01:54;;;;;;;9.10;2.10;;;8.20;99.90;;;;;;5033404;28;20221;-93
2024/01/29 12:04:21;;;;;;;4.57;1.90;;;8.20;99.90;;;;;;5033471;28;20225;-92
2024/01/29 12:06:52;;;;;;;5.87;2.03;;;8.20;99.90;;;;;;5032126;28;20661;-90
2024/01/29 12:09:18;;;;;;;4.17;2.13;;;8.20;99.90;;;;;;5032607;28;20182;-94
2024/01/29 12:11:47;;;;;;;2.87;1.73;;;8.10;99.90;;;;;;5033021;28;20178;-95
2024/01/29 12:14:13;;;;;;;2.80;1.57;;;8.10;99.90;;;;;;5032388;28;20273;-93
2024/01/29 12:16:40;;;;;;;3.57;1.87;;;8.10;99.90;;;;;;5032433;28;20719;-93
2024/01/29 12:19:06;;;;;;;3.97;1.70;;;8.20;99.90;;;;;;5032639;28;20217;-93
2024/01/29 12:21:32;;;;;;;3.43;1.87;;;8.30;99.90;;;;;;5033821;28;20243;-92
2024/01/29 12:23:59;;;;;;;3.97;1.57;;;8.40;99.90;;;;;;5034286;28;20210;-94
2024/01/29 12:26:28;;;;;;;2.73;1.70;;;8.50;99.90;;;;;;5032359;28;20213;-94
2024/01/29 12:29:01;;;;;;;2.40;1.75;;;8.60;99.90;;;;;;5032525;28;20190;-93
2024/01/29 12:31:30;;;;;;;1.85;1.33;;;8.70;99.90;;;;;;5033092;28;20202;-92
2024/01/29 12:33:59;;;;;;;4.83;1.70;;;8.80;99.90;;;;;;5032925;28;20186;-91
2024/01/29 12:36:25;;;;;;;2.42;1.45;;;8.90;99.90;;;;;;5031572;28;20183;-93
2024/01/29 12:38:54;;;;;;;5.68;1.58;;;8.90;99.90;;;;;;5033783;28;20264;-94
2024/01/29 12:41:20;;;;;;;2.60;1.60;;;8.90;99.90;;;;;;5032963;28;20186;-93
2024/01/29 12:43:50;;;;;;;4.63;1.65;;;9.00;99.90;;;;;;5032594;28;20178;-93
2024/01/29 12:46:16;;;;;;;3.57;1.70;;;9.00;99.90;;;;;;5031450;28;20244;-93
2024/01/29 12:48:42;;;;;;;2.92;1.90;;;9.00;99.90;;;;;;5033364;28;20716;-92
2024/01/29 12:51:13;;;;;;;2.70;1.70;;;9.10;99.90;;;;;;5033410;28;20254;-92